DEDMZ EDVK-EDLR
Flight info
| Callsign | DEDMZ |
|---|---|
| Flight time | 0h 20m |
| Altitude | 2200 |
| Route | DCT |
| Aircraft | C172/L-SKYGRY/SU2 |
Departure
| Time | 2026-05-05 15:05 |
|---|---|
| Airport | Kassel Airport (EDVK) |
Arrival
| Time | 2026-05-05 15:25 |
|---|---|
| Airport | Paderborn-Haxterberg Airfield (EDLR) |
| Time | Latitude | Longitude | Altitude | Speed | Heading |
|---|---|---|---|---|---|
| 2026-05-05 14:58 | 51.41755 | 9.39524 | 859 ft | 0 kts | 14° |
| 2026-05-05 15:00 | 51.41760 | 9.39528 | 859 ft | 4 kts | 37° |
| 2026-05-05 15:00 | 51.41758 | 9.39574 | 859 ft | 10 kts | 101° |
| 2026-05-05 15:00 | 51.41788 | 9.39768 | 859 ft | 17 kts | 22° |
| 2026-05-05 15:00 | 51.41891 | 9.39710 | 859 ft | 20 kts | 272° |
| 2026-05-05 15:01 | 51.41907 | 9.39448 | 859 ft | 27 kts | 275° |
| 2026-05-05 15:01 | 51.41924 | 9.39114 | 852 ft | 33 kts | 275° |
| 2026-05-05 15:01 | 51.41948 | 9.38726 | 859 ft | 37 kts | 275° |
| 2026-05-05 15:01 | 51.41970 | 9.38297 | 859 ft | 40 kts | 273° |
| 2026-05-05 15:02 | 51.41994 | 9.37840 | 859 ft | 41 kts | 276° |
| 2026-05-05 15:02 | 51.42015 | 9.37484 | 859 ft | 19 kts | 277° |
| 2026-05-05 15:02 | 51.42024 | 9.37444 | 859 ft | 0 kts | 313° |
| 2026-05-05 15:03 | 51.42032 | 9.37433 | 848 ft | 8 kts | 326° |
| 2026-05-05 15:03 | 51.42147 | 9.37445 | 854 ft | 22 kts | 30° |
| 2026-05-05 15:03 | 51.42154 | 9.37827 | 859 ft | 58 kts | 95° |
| 2026-05-05 15:03 | 51.42110 | 9.38683 | 904 ft | 88 kts | 94° |
| 2026-05-05 15:04 | 51.42045 | 9.39654 | 1139 ft | 84 kts | 96° |
| 2026-05-05 15:04 | 51.41963 | 9.40568 | 1331 ft | 90 kts | 101° |
| 2026-05-05 15:04 | 51.41727 | 9.41685 | 1284 ft | 112 kts | 102° |
| 2026-05-05 15:04 | 51.42006 | 9.42810 | 1286 ft | 118 kts | 43° |
| 2026-05-05 15:05 | 51.43482 | 9.43725 | 1431 ft | 110 kts | 356° |
| 2026-05-05 15:05 | 51.44156 | 9.43283 | 1545 ft | 112 kts | 303° |
| 2026-05-05 15:05 | 51.44420 | 9.42132 | 1703 ft | 112 kts | 284° |
| 2026-05-05 15:06 | 51.44571 | 9.40893 | 1840 ft | 112 kts | 281° |
| 2026-05-05 15:06 | 51.44716 | 9.39643 | 1796 ft | 125 kts | 280° |
| 2026-05-05 15:06 | 51.44859 | 9.38249 | 1783 ft | 126 kts | 275° |
| 2026-05-05 15:06 | 51.44814 | 9.36855 | 1710 ft | 133 kts | 264° |
| 2026-05-05 15:07 | 51.44878 | 9.35420 | 1762 ft | 122 kts | 288° |
| 2026-05-05 15:07 | 51.45159 | 9.34128 | 1740 ft | 126 kts | 296° |
| 2026-05-05 15:07 | 51.45783 | 9.33177 | 1767 ft | 125 kts | 323° |
| 2026-05-05 15:07 | 51.46512 | 9.32393 | 1770 ft | 127 kts | 327° |
| 2026-05-05 15:08 | 51.47292 | 9.31733 | 1771 ft | 127 kts | 334° |
| 2026-05-05 15:08 | 51.48081 | 9.31122 | 1769 ft | 125 kts | 334° |
| 2026-05-05 15:08 | 51.48863 | 9.30516 | 1772 ft | 124 kts | 334° |
| 2026-05-05 15:08 | 51.49640 | 9.29910 | 1767 ft | 124 kts | 333° |
| 2026-05-05 15:09 | 51.50417 | 9.29307 | 1768 ft | 124 kts | 334° |
| 2026-05-05 15:09 | 51.51196 | 9.28709 | 1769 ft | 124 kts | 334° |
| 2026-05-05 15:09 | 51.51953 | 9.28051 | 1763 ft | 124 kts | 319° |
| 2026-05-05 15:09 | 51.52465 | 9.26940 | 1762 ft | 123 kts | 304° |
| 2026-05-05 15:10 | 51.53042 | 9.25917 | 1765 ft | 124 kts | 314° |
| 2026-05-05 15:10 | 51.53642 | 9.24922 | 1764 ft | 124 kts | 314° |
| 2026-05-05 15:10 | 51.54243 | 9.23929 | 1764 ft | 124 kts | 314° |
| 2026-05-05 15:10 | 51.54842 | 9.22937 | 1766 ft | 124 kts | 313° |
| 2026-05-05 15:11 | 51.55445 | 9.21939 | 1767 ft | 124 kts | 314° |
| 2026-05-05 15:11 | 51.56049 | 9.20940 | 1765 ft | 124 kts | 314° |
| 2026-05-05 15:11 | 51.56650 | 9.19946 | 1763 ft | 123 kts | 314° |
| 2026-05-05 15:11 | 51.57246 | 9.18955 | 1765 ft | 124 kts | 314° |
| 2026-05-05 15:12 | 51.57845 | 9.17962 | 1763 ft | 123 kts | 314° |
| 2026-05-05 15:12 | 51.58441 | 9.16973 | 1765 ft | 123 kts | 314° |
| 2026-05-05 15:12 | 51.59040 | 9.15979 | 1767 ft | 124 kts | 314° |
| 2026-05-05 15:12 | 51.59629 | 9.15001 | 1762 ft | 123 kts | 314° |
| 2026-05-05 15:13 | 51.60219 | 9.14001 | 1762 ft | 123 kts | 311° |
| 2026-05-05 15:13 | 51.60782 | 9.12961 | 1764 ft | 124 kts | 310° |
| 2026-05-05 15:13 | 51.61348 | 9.11917 | 1763 ft | 124 kts | 311° |
| 2026-05-05 15:13 | 51.61910 | 9.10875 | 1762 ft | 123 kts | 310° |
| 2026-05-05 15:14 | 51.62471 | 9.09836 | 1762 ft | 123 kts | 310° |
| 2026-05-05 15:14 | 51.63031 | 9.08799 | 1764 ft | 123 kts | 311° |
| 2026-05-05 15:14 | 51.63591 | 9.07761 | 1763 ft | 123 kts | 311° |
| 2026-05-05 15:14 | 51.64157 | 9.06714 | 1764 ft | 124 kts | 311° |
| 2026-05-05 15:15 | 51.64721 | 9.05666 | 1764 ft | 124 kts | 310° |
| 2026-05-05 15:15 | 51.65287 | 9.04620 | 1762 ft | 123 kts | 310° |
| 2026-05-05 15:15 | 51.65848 | 9.03581 | 1761 ft | 123 kts | 310° |
| 2026-05-05 15:15 | 51.66408 | 9.02541 | 1763 ft | 124 kts | 310° |
| 2026-05-05 15:16 | 51.66977 | 9.01485 | 1764 ft | 125 kts | 310° |
| 2026-05-05 15:16 | 51.67547 | 9.00423 | 1765 ft | 125 kts | 310° |
| 2026-05-05 15:16 | 51.68116 | 8.99364 | 1765 ft | 125 kts | 310° |
| 2026-05-05 15:16 | 51.68685 | 8.98304 | 1765 ft | 124 kts | 310° |
| 2026-05-05 15:17 | 51.69248 | 8.97242 | 1771 ft | 125 kts | 310° |
| 2026-05-05 15:17 | 51.69796 | 8.96174 | 1812 ft | 122 kts | 309° |
| 2026-05-05 15:17 | 51.70312 | 8.95143 | 1943 ft | 114 kts | 307° |
| 2026-05-05 15:17 | 51.70770 | 8.94112 | 2053 ft | 113 kts | 305° |
| 2026-05-05 15:18 | 51.71157 | 8.93028 | 2197 ft | 108 kts | 288° |
| 2026-05-05 15:18 | 51.71222 | 8.91786 | 2217 ft | 115 kts | 268° |
| 2026-05-05 15:18 | 51.71221 | 8.90442 | 2196 ft | 121 kts | 274° |
| 2026-05-05 15:18 | 51.71280 | 8.89092 | 2171 ft | 121 kts | 271° |
| 2026-05-05 15:19 | 51.71233 | 8.87750 | 2072 ft | 116 kts | 262° |
| 2026-05-05 15:19 | 51.71097 | 8.86470 | 1969 ft | 116 kts | 259° |
| 2026-05-05 15:19 | 51.70938 | 8.85232 | 1946 ft | 112 kts | 258° |
| 2026-05-05 15:19 | 51.70758 | 8.83987 | 1799 ft | 111 kts | 255° |
| 2026-05-05 15:20 | 51.70518 | 8.82805 | 1600 ft | 110 kts | 250° |
| 2026-05-05 15:20 | 51.70246 | 8.81745 | 1404 ft | 96 kts | 246° |
| 2026-05-05 15:20 | 51.69965 | 8.80837 | 1226 ft | 87 kts | 244° |
| 2026-05-05 15:20 | 51.69689 | 8.79985 | 1043 ft | 82 kts | 242° |
| 2026-05-05 15:21 | 51.69427 | 8.79216 | 902 ft | 78 kts | 241° |
| 2026-05-05 15:21 | 51.69167 | 8.78447 | 862 ft | 77 kts | 242° |
| 2026-05-05 15:21 | 51.68914 | 8.77783 | 800 ft | 58 kts | 241° |
| 2026-05-05 15:21 | 51.68754 | 8.77280 | 810 ft | 56 kts | 241° |
| 2026-05-05 15:22 | 51.68537 | 8.76633 | 943 ft | 65 kts | 240° |
| 2026-05-05 15:22 | 51.68217 | 8.76189 | 1099 ft | 65 kts | 171° |
| 2026-05-05 15:22 | 51.68016 | 8.76767 | 1192 ft | 73 kts | 78° |
| 2026-05-05 15:22 | 51.68267 | 8.77510 | 1267 ft | 85 kts | 60° |
| 2026-05-05 15:23 | 51.68613 | 8.78430 | 1314 ft | 92 kts | 54° |
| 2026-05-05 15:23 | 51.69009 | 8.79176 | 1446 ft | 94 kts | 55° |
| 2026-05-05 15:23 | 51.69317 | 8.80125 | 1560 ft | 93 kts | 61° |
| 2026-05-05 15:23 | 51.69761 | 8.80867 | 1639 ft | 96 kts | 13° |
| 2026-05-05 15:24 | 51.70347 | 8.80499 | 1724 ft | 96 kts | 300° |
| 2026-05-05 15:24 | 51.70313 | 8.79543 | 1630 ft | 89 kts | 221° |
| 2026-05-05 15:24 | 51.69783 | 8.78995 | 1249 ft | 85 kts | 217° |
| 2026-05-05 15:24 | 51.69362 | 8.78459 | 989 ft | 71 kts | 222° |
| 2026-05-05 15:25 | 51.69033 | 8.77970 | 811 ft | 57 kts | 228° |
| 2026-05-05 15:25 | 51.68999 | 8.77908 | 793 ft | 0 kts | 233° |
| 2026-05-05 15:25 | 51.68961 | 8.77833 | 798 ft | 24 kts | 219° |
| 2026-05-05 15:25 | 51.68874 | 8.77651 | 801 ft | 18 kts | 244° |
| 2026-05-05 15:26 | 51.68803 | 8.77586 | 802 ft | 10 kts | 148° |
| 2026-05-05 15:26 | 51.68766 | 8.77582 | 800 ft | 4 kts | 242° |
| 2026-05-05 15:26 | 51.68749 | 8.77520 | 801 ft | 8 kts | 242° |
| 2026-05-05 15:26 | 51.68767 | 8.77508 | 803 ft | 9 kts | 34° |
| 2026-05-05 15:27 | 51.68805 | 8.77607 | 801 ft | 3 kts | 55° |
| 2026-05-05 15:27 | 51.68808 | 8.77614 | 800 ft | 0 kts | 60° |